Eastern Galaxy — DUCH — position and weather

sailwx.info

Track history (hours):
 
Tides and Currents Weather Stations Pressure Air Temp Water Temp Dewpoint Dewpoint Depression Visibility Wind Speed Wind Dir Waves Ship Positions

Eastern Galaxy

Last reported at 2017-Apr-18 10:03 UTC. Time now 2017-Apr-30 16:53 UTC.
Position N 33°52' E 134°56'.
Warning: this ship's position is 12 days out of date.

Length 100 m; draft 5.7 m.

Type: Cargo ship. MMSI: 548829000.

Date/timePositionNaut miles runAvg speedWind from/ knotsBaromVisibWave heightAir tempDewpointWater temp
2017-Apr-18 10:03N 33°52' E 134°56'310.4
2017-Apr-18 09:47N 33°55' E 134°56'310.2
2017-Apr-18 09:30N 33°58' E 134°57'510.4
2017-Apr-18 09:00N 34°03' E 134°57'611.1
2017-Apr-18 08:30N 34°08' E 134°58'612.2
2017-Apr-18 08:00N 34°14' E 134°58'711.6
2017-Apr-18 07:26N 34°21' E 134°60'511.5
2017-Apr-18 07:00N 34°25' E 135°04'612.2
2017-Apr-18 06:29N 34°29' E 135°10'611.7
2017-Apr-18 06:00N 34°33' E 135°15'611.7
2017-Apr-18 05:30N 34°36' E 135°20'5 9.5
2017-Apr-18 05:00N 34°39' E 135°25'1 1.4
2017-Apr-18 04:29N 34°39' E 135°26'0 0.0
2017-Apr-18 03:53N 34°39' E 135°26'0 0.0
2017-Apr-18 03:23N 34°39' E 135°26'0 0.0
2017-Apr-18 02:53N 34°39' E 135°26'0 0.0
2017-Apr-18 02:29N 34°39' E 135°26'0 0.0
2017-Apr-18 01:53N 34°39' E 135°26'0 0.0
2017-Apr-18 01:29N 34°39' E 135°26'0 0.0
2017-Apr-18 00:59N 34°39' E 135°26'0 0.0
2017-Apr-18 00:23N 34°39' E 135°26'0 0.0
2017-Apr-17 23:59N 34°39' E 135°26'0 0.0
2017-Apr-17 23:23N 34°39' E 135°26'0 0.0
2017-Apr-17 22:59N 34°39' E 135°26'0 0.0
2017-Apr-17 22:29N 34°39' E 135°26'0 0.0
2017-Apr-17 21:59N 34°39' E 135°26'0 0.0
2017-Apr-17 21:29N 34°39' E 135°26'0 0.0
2017-Apr-17 20:59N 34°39' E 135°26'0 0.0
2017-Apr-17 20:29N 34°39' E 135°26'0 0.0
2017-Apr-17 19:53N 34°39' E 135°26'0 0.0
2017-Apr-17 19:17N 34°39' E 135°26'0 0.0
2017-Apr-17 18:59N 34°39' E 135°26'0 0.0
2017-Apr-17 18:23N 34°39' E 135°26'0 0.0
2017-Apr-17 17:59N 34°39' E 135°26'0 0.0
2017-Apr-17 17:17N 34°39' E 135°26'0 0.0
2017-Apr-17 16:59N 34°39' E 135°26'0 0.0
2017-Apr-17 16:05N 34°39' E 135°26'0 0.0
2017-Apr-17 15:53N 34°39' E 135°26'0 0.0
2017-Apr-17 15:29N 34°39' E 135°26'0 0.0
2017-Apr-17 14:59N 34°39' E 135°26'0 0.0
2017-Apr-17 14:23N 34°39' E 135°26'0 0.0
2017-Apr-17 13:29N 34°39' E 135°26'0 0.0
2017-Apr-17 12:47N 34°39' E 135°26'0 0.0
2017-Apr-17 12:29N 34°39' E 135°26'0 0.0
2017-Apr-17 11:59N 34°39' E 135°26'0 0.0
2017-Apr-17 11:29N 34°39' E 135°26'0 0.0
2017-Apr-17 10:59N 34°39' E 135°26'0 0.0
2017-Apr-17 10:17N 34°39' E 135°26'0 0.0
2017-Apr-17 09:59N 34°39' E 135°26'0 0.0
2017-Apr-17 09:29N 34°39' E 135°26'0 0.0
2017-Apr-17 08:59N 34°39' E 135°26'0 0.0
2017-Apr-17 08:23N 34°39' E 135°26'0 0.0
2017-Apr-17 07:47N 34°39' E 135°26'0 0.0
2017-Apr-17 07:29N 34°39' E 135°26'0 0.0
2017-Apr-17 06:47N 34°39' E 135°26'0 0.0
2017-Apr-17 06:29N 34°39' E 135°26'0 0.0
2017-Apr-17 05:59N 34°39' E 135°26'0 0.0
2017-Apr-17 05:29N 34°39' E 135°26'0 0.0
2017-Apr-17 04:53N 34°39' E 135°26'0 0.0
2017-Apr-17 03:41N 34°39' E 135°26'0 0.0
2017-Apr-17 03:11N 34°39' E 135°26'0 0.0
2017-Apr-17 02:53N 34°39' E 135°26'0 0.0
2017-Apr-17 02:11N 34°39' E 135°26'0 0.0
2017-Apr-17 01:59N 34°39' E 135°26'0 0.0
2017-Apr-17 01:29N 34°39' E 135°26'0 0.0
2017-Apr-17 00:53N 34°39' E 135°26'0 0.0
2017-Apr-17 00:29N 34°39' E 135°26'0 0.0
2017-Apr-16 23:59N 34°39' E 135°26'0 0.0
2017-Apr-16 23:23N 34°39' E 135°26'0 0.0
2017-Apr-16 22:59N 34°39' E 135°26'0 0.0
2017-Apr-16 22:29N 34°39' E 135°26'0 0.5
2017-Apr-16 22:00N 34°39' E 135°25'2 3.8
2017-Apr-16 21:30N 34°38' E 135°23'3 5.4
2017-Apr-16 21:00N 34°36' E 135°21'0 0.0
2017-Apr-16 20:30N 34°36' E 135°21'0 0.0
2017-Apr-16 20:00N 34°36' E 135°21'0 0.0
2017-Apr-16 19:18N 34°36' E 135°21'0 0.2
2017-Apr-16 19:00N 34°36' E 135°21'0 0.1
2017-Apr-16 18:30N 34°36' E 135°21'0 0.0
2017-Apr-16 18:00N 34°36' E 135°21'0 0.0
2017-Apr-16 17:18N 34°36' E 135°21'0 0.0
2017-Apr-16 17:00N 34°36' E 135°21'0 0.0
2017-Apr-16 16:31N 34°36' E 135°21'0 0.0
2017-Apr-16 16:00N 34°36' E 135°21'0 0.1
2017-Apr-16 15:30N 34°36' E 135°21'2 3.8
2017-Apr-16 15:00N 34°35' E 135°20'510.6
2017-Apr-16 14:30N 34°31' E 135°15'1312.7
2017-Apr-16 13:30N 34°22' E 135°04'713.5
2017-Apr-16 13:00N 34°17' E 134°59'612.6
2017-Apr-16 12:31N 34°11' E 134°59'612.6
2017-Apr-16 12:00N 34°04' E 134°59'713.0
2017-Apr-16 11:29N 33°58' E 134°60'208 9.6
2017-Apr-15 13:45N 34°39' E 139°07'311.4
2017-Apr-15 13:30N 34°41' E 139°08'611.5
2017-Apr-15 12:58N 34°46' E 139°13'511.3
2017-Apr-15 12:30N 34°50' E 139°17'611.1
2017-Apr-15 12:00N 34°54' E 139°22'511.0
2017-Apr-15 11:30N 34°57' E 139°28'510.7
2017-Apr-15 11:00N 34°60' E 139°33'510.6
2017-Apr-15 10:30N 35°03' E 139°38'510.6
2017-Apr-15 10:00N 35°06' E 139°44'611.1
2017-Apr-15 09:30N 35°11' E 139°46'510.6
2017-Apr-15 09:00N 35°16' E 139°46'510.7
2017-Apr-15 08:30N 35°21' E 139°43'510.2
2017-Apr-15 08:00N 35°26' E 139°43'2 4.4
2017-Apr-15 07:28N 35°28' E 139°42'0 0.0
2017-Apr-15 06:58N 35°28' E 139°42'0 0.0
2017-Apr-15 06:28N 35°28' E 139°42'0 0.0
2017-Apr-15 05:58N 35°28' E 139°42'0 0.0
2017-Apr-15 05:28N 35°28' E 139°42'0 0.0
2017-Apr-15 04:58N 35°28' E 139°42'0 0.0
2017-Apr-15 04:28N 35°28' E 139°42'0 0.0
2017-Apr-15 03:55N 35°28' E 139°42'0 0.0
2017-Apr-15 03:28N 35°28' E 139°42'0 0.0
2017-Apr-15 02:55N 35°28' E 139°42'0 0.0
2017-Apr-15 02:28N 35°28' E 139°42'0 0.0
2017-Apr-15 01:58N 35°28' E 139°42'0 0.0
2017-Apr-15 01:28N 35°28' E 139°42'0 0.0
2017-Apr-15 00:55N 35°28' E 139°42'0 0.0
2017-Apr-15 00:28N 35°28' E 139°42'0 0.0
2017-Apr-14 23:58N 35°28' E 139°42'0 0.0
2017-Apr-14 23:28N 35°28' E 139°42'0 0.0
2017-Apr-14 22:58N 35°28' E 139°42'0 0.0
2017-Apr-14 22:28N 35°28' E 139°42'0 0.0
2017-Apr-14 21:58N 35°28' E 139°42'0 0.0
2017-Apr-14 21:28N 35°28' E 139°42'0 0.0
2017-Apr-14 20:58N 35°28' E 139°42'0 0.0
2017-Apr-14 20:28N 35°28' E 139°42'0 0.0
2017-Apr-14 19:58N 35°28' E 139°42'0 0.0
2017-Apr-14 19:28N 35°28' E 139°42'0 0.0
2017-Apr-14 18:58N 35°28' E 139°42'0 0.0
2017-Apr-14 18:28N 35°28' E 139°42'0 0.0
2017-Apr-14 17:55N 35°28' E 139°42'0 0.0
2017-Apr-14 17:28N 35°28' E 139°42'0 0.0
2017-Apr-14 16:58N 35°28' E 139°42'0 0.0
2017-Apr-14 16:28N 35°28' E 139°42'0 0.0
2017-Apr-14 15:58N 35°28' E 139°42'0 0.0
2017-Apr-14 15:28N 35°28' E 139°42'0 0.0
2017-Apr-14 14:58N 35°28' E 139°42'0 0.0
2017-Apr-14 13:58N 35°28' E 139°42'0 0.0
2017-Apr-14 13:28N 35°28' E 139°42'0 0.0
2017-Apr-14 12:58N 35°28' E 139°42'0 0.0
2017-Apr-14 12:28N 35°28' E 139°42'0 0.0
2017-Apr-14 11:58N 35°28' E 139°42'0 0.0
2017-Apr-14 11:28N 35°28' E 139°42'0 0.0
2017-Apr-14 10:58N 35°28' E 139°42'0 0.0
2017-Apr-14 10:28N 35°28' E 139°42'0 0.0
2017-Apr-14 09:58N 35°28' E 139°42'0 0.0
2017-Apr-14 09:28N 35°28' E 139°42'0 0.0
2017-Apr-14 08:58N 35°28' E 139°42'0 0.0
2017-Apr-14 08:28N 35°28' E 139°42'0 0.0
2017-Apr-14 07:58N 35°28' E 139°42'0 0.0
2017-Apr-14 07:30N 35°28' E 139°42'2 3.0
2017-Apr-14 07:00N 35°27' E 139°43'1 2.4
2017-Apr-14 06:31N 35°27' E 139°45'2 3.7
2017-Apr-14 06:01N 35°25' E 139°46'611.1
2017-Apr-14 05:30N 35°20' E 139°44'612.1
2017-Apr-14 05:00N 35°14' E 139°47'612.5
2017-Apr-14 04:30N 35°08' E 139°46'612.5
2017-Apr-14 04:00N 35°03' E 139°41'712.9
2017-Apr-14 03:29N 34°59' E 139°34'  
Track history (hours):
 
Tides and Currents Weather Stations Pressure Air Temp Water Temp Dewpoint Dewpoint Depression Visibility Wind Speed Wind Dir Waves Ship Positions

Eastern Galaxy

Last reported at 2017-Apr-18 10:03 UTC. Time now 2017-Apr-30 16:53 UTC.
Position N 33°52' E 134°56'.
Warning: this ship's position is 12 days out of date.

Length 100 m; draft 5.7 m.

Type: Cargo ship. MMSI: 548829000.

Date/timePositionNaut miles runAvg speedWind from/ knotsBaromVisibWave heightAir tempDewpointWater temp
2017-Apr-18 10:03N 33°52' E 134°56'310.4
2017-Apr-18 09:47N 33°55' E 134°56'310.2
2017-Apr-18 09:30N 33°58' E 134°57'510.4
2017-Apr-18 09:00N 34°03' E 134°57'611.1
2017-Apr-18 08:30N 34°08' E 134°58'612.2
2017-Apr-18 08:00N 34°14' E 134°58'711.6
2017-Apr-18 07:26N 34°21' E 134°60'511.5
2017-Apr-18 07:00N 34°25' E 135°04'612.2
2017-Apr-18 06:29N 34°29' E 135°10'611.7
2017-Apr-18 06:00N 34°33' E 135°15'611.7
2017-Apr-18 05:30N 34°36' E 135°20'5 9.5
2017-Apr-18 05:00N 34°39' E 135°25'1 1.4
2017-Apr-18 04:29N 34°39' E 135°26'0 0.0
2017-Apr-18 03:53N 34°39' E 135°26'0 0.0
2017-Apr-18 03:23N 34°39' E 135°26'0 0.0
2017-Apr-18 02:53N 34°39' E 135°26'0 0.0
2017-Apr-18 02:29N 34°39' E 135°26'0 0.0
2017-Apr-18 01:53N 34°39' E 135°26'0 0.0
2017-Apr-18 01:29N 34°39' E 135°26'0 0.0
2017-Apr-18 00:59N 34°39' E 135°26'0 0.0
2017-Apr-18 00:23N 34°39' E 135°26'0 0.0
2017-Apr-17 23:59N 34°39' E 135°26'0 0.0
2017-Apr-17 23:23N 34°39' E 135°26'0 0.0
2017-Apr-17 22:59N 34°39' E 135°26'0 0.0
2017-Apr-17 22:29N 34°39' E 135°26'0 0.0
2017-Apr-17 21:59N 34°39' E 135°26'0 0.0
2017-Apr-17 21:29N 34°39' E 135°26'0 0.0
2017-Apr-17 20:59N 34°39' E 135°26'0 0.0
2017-Apr-17 20:29N 34°39' E 135°26'0 0.0
2017-Apr-17 19:53N 34°39' E 135°26'0 0.0
2017-Apr-17 19:17N 34°39' E 135°26'0 0.0
2017-Apr-17 18:59N 34°39' E 135°26'0 0.0
2017-Apr-17 18:23N 34°39' E 135°26'0 0.0
2017-Apr-17 17:59N 34°39' E 135°26'0 0.0
2017-Apr-17 17:17N 34°39' E 135°26'0 0.0
2017-Apr-17 16:59N 34°39' E 135°26'0 0.0
2017-Apr-17 16:05N 34°39' E 135°26'0 0.0
2017-Apr-17 15:53N 34°39' E 135°26'0 0.0
2017-Apr-17 15:29N 34°39' E 135°26'0 0.0
2017-Apr-17 14:59N 34°39' E 135°26'0 0.0
2017-Apr-17 14:23N 34°39' E 135°26'0 0.0
2017-Apr-17 13:29N 34°39' E 135°26'0 0.0
2017-Apr-17 12:47N 34°39' E 135°26'0 0.0
2017-Apr-17 12:29N 34°39' E 135°26'0 0.0
2017-Apr-17 11:59N 34°39' E 135°26'0 0.0
2017-Apr-17 11:29N 34°39' E 135°26'0 0.0
2017-Apr-17 10:59N 34°39' E 135°26'0 0.0
2017-Apr-17 10:17N 34°39' E 135°26'0 0.0
2017-Apr-17 09:59N 34°39' E 135°26'0 0.0
2017-Apr-17 09:29N 34°39' E 135°26'0 0.0
2017-Apr-17 08:59N 34°39' E 135°26'0 0.0
2017-Apr-17 08:23N 34°39' E 135°26'0 0.0
2017-Apr-17 07:47N 34°39' E 135°26'0 0.0
2017-Apr-17 07:29N 34°39' E 135°26'0 0.0
2017-Apr-17 06:47N 34°39' E 135°26'0 0.0
2017-Apr-17 06:29N 34°39' E 135°26'0 0.0
2017-Apr-17 05:59N 34°39' E 135°26'0 0.0
2017-Apr-17 05:29N 34°39' E 135°26'0 0.0
2017-Apr-17 04:53N 34°39' E 135°26'0 0.0
2017-Apr-17 03:41N 34°39' E 135°26'0 0.0
2017-Apr-17 03:11N 34°39' E 135°26'0 0.0
2017-Apr-17 02:53N 34°39' E 135°26'0 0.0
2017-Apr-17 02:11N 34°39' E 135°26'0 0.0
2017-Apr-17 01:59N 34°39' E 135°26'0 0.0
2017-Apr-17 01:29N 34°39' E 135°26'0 0.0
2017-Apr-17 00:53N 34°39' E 135°26'0 0.0
2017-Apr-17 00:29N 34°39' E 135°26'0 0.0
2017-Apr-16 23:59N 34°39' E 135°26'0 0.0
2017-Apr-16 23:23N 34°39' E 135°26'0 0.0
2017-Apr-16 22:59N 34°39' E 135°26'0 0.0
2017-Apr-16 22:29N 34°39' E 135°26'0 0.5
2017-Apr-16 22:00N 34°39' E 135°25'2 3.8
2017-Apr-16 21:30N 34°38' E 135°23'3 5.4
2017-Apr-16 21:00N 34°36' E 135°21'0 0.0
2017-Apr-16 20:30N 34°36' E 135°21'0 0.0
2017-Apr-16 20:00N 34°36' E 135°21'0 0.0
2017-Apr-16 19:18N 34°36' E 135°21'0 0.2
2017-Apr-16 19:00N 34°36' E 135°21'0 0.1
2017-Apr-16 18:30N 34°36' E 135°21'0 0.0
2017-Apr-16 18:00N 34°36' E 135°21'0 0.0
2017-Apr-16 17:18N 34°36' E 135°21'0 0.0
2017-Apr-16 17:00N 34°36' E 135°21'0 0.0
2017-Apr-16 16:31N 34°36' E 135°21'0 0.0
2017-Apr-16 16:00N 34°36' E 135°21'0 0.1
2017-Apr-16 15:30N 34°36' E 135°21'2 3.8
2017-Apr-16 15:00N 34°35' E 135°20'510.6
2017-Apr-16 14:30N 34°31' E 135°15'1312.7
2017-Apr-16 13:30N 34°22' E 135°04'713.5
2017-Apr-16 13:00N 34°17' E 134°59'612.6
2017-Apr-16 12:31N 34°11' E 134°59'612.6
2017-Apr-16 12:00N 34°04' E 134°59'713.0
2017-Apr-16 11:29N 33°58' E 134°60'208 9.6
2017-Apr-15 13:45N 34°39' E 139°07'311.4
2017-Apr-15 13:30N 34°41' E 139°08'611.5
2017-Apr-15 12:58N 34°46' E 139°13'511.3
2017-Apr-15 12:30N 34°50' E 139°17'611.1
2017-Apr-15 12:00N 34°54' E 139°22'511.0
2017-Apr-15 11:30N 34°57' E 139°28'510.7
2017-Apr-15 11:00N 34°60' E 139°33'510.6
2017-Apr-15 10:30N 35°03' E 139°38'510.6
2017-Apr-15 10:00N 35°06' E 139°44'611.1
2017-Apr-15 09:30N 35°11' E 139°46'510.6
2017-Apr-15 09:00N 35°16' E 139°46'510.7
2017-Apr-15 08:30N 35°21' E 139°43'510.2
2017-Apr-15 08:00N 35°26' E 139°43'2 4.4
2017-Apr-15 07:28N 35°28' E 139°42'0 0.0
2017-Apr-15 06:58N 35°28' E 139°42'0 0.0
2017-Apr-15 06:28N 35°28' E 139°42'0 0.0
2017-Apr-15 05:58N 35°28' E 139°42'0 0.0
2017-Apr-15 05:28N 35°28' E 139°42'0 0.0
2017-Apr-15 04:58N 35°28' E 139°42'0 0.0
2017-Apr-15 04:28N 35°28' E 139°42'0 0.0
2017-Apr-15 03:55N 35°28' E 139°42'0 0.0
2017-Apr-15 03:28N 35°28' E 139°42'0 0.0
2017-Apr-15 02:55N 35°28' E 139°42'0 0.0
2017-Apr-15 02:28N 35°28' E 139°42'0 0.0
2017-Apr-15 01:58N 35°28' E 139°42'0 0.0
2017-Apr-15 01:28N 35°28' E 139°42'0 0.0
2017-Apr-15 00:55N 35°28' E 139°42'0 0.0
2017-Apr-15 00:28N 35°28' E 139°42'0 0.0
2017-Apr-14 23:58N 35°28' E 139°42'0 0.0
2017-Apr-14 23:28N 35°28' E 139°42'0 0.0
2017-Apr-14 22:58N 35°28' E 139°42'0 0.0
2017-Apr-14 22:28N 35°28' E 139°42'0 0.0
2017-Apr-14 21:58N 35°28' E 139°42'0 0.0
2017-Apr-14 21:28N 35°28' E 139°42'0 0.0
2017-Apr-14 20:58N 35°28' E 139°42'0 0.0
2017-Apr-14 20:28N 35°28' E 139°42'0 0.0
2017-Apr-14 19:58N 35°28' E 139°42'0 0.0
2017-Apr-14 19:28N 35°28' E 139°42'0 0.0
2017-Apr-14 18:58N 35°28' E 139°42'0 0.0
2017-Apr-14 18:28N 35°28' E 139°42'0 0.0
2017-Apr-14 17:55N 35°28' E 139°42'0 0.0
2017-Apr-14 17:28N 35°28' E 139°42'0 0.0
2017-Apr-14 16:58N 35°28' E 139°42'0 0.0
2017-Apr-14 16:28N 35°28' E 139°42'0 0.0
2017-Apr-14 15:58N 35°28' E 139°42'0 0.0
2017-Apr-14 15:28N 35°28' E 139°42'0 0.0
2017-Apr-14 14:58N 35°28' E 139°42'0 0.0
2017-Apr-14 13:58N 35°28' E 139°42'0 0.0
2017-Apr-14 13:28N 35°28' E 139°42'0 0.0
2017-Apr-14 12:58N 35°28' E 139°42'0 0.0
2017-Apr-14 12:28N 35°28' E 139°42'0 0.0
2017-Apr-14 11:58N 35°28' E 139°42'0 0.0
2017-Apr-14 11:28N 35°28' E 139°42'0 0.0
2017-Apr-14 10:58N 35°28' E 139°42'0 0.0
2017-Apr-14 10:28N 35°28' E 139°42'0 0.0
2017-Apr-14 09:58N 35°28' E 139°42'0 0.0
2017-Apr-14 09:28N 35°28' E 139°42'0 0.0
2017-Apr-14 08:58N 35°28' E 139°42'0 0.0
2017-Apr-14 08:28N 35°28' E 139°42'0 0.0
2017-Apr-14 07:58N 35°28' E 139°42'0 0.0
2017-Apr-14 07:30N 35°28' E 139°42'2 3.0
2017-Apr-14 07:00N 35°27' E 139°43'1 2.4
2017-Apr-14 06:31N 35°27' E 139°45'2 3.7
2017-Apr-14 06:01N 35°25' E 139°46'611.1
2017-Apr-14 05:30N 35°20' E 139°44'612.1
2017-Apr-14 05:00N 35°14' E 139°47'612.5
2017-Apr-14 04:30N 35°08' E 139°46'612.5
2017-Apr-14 04:00N 35°03' E 139°41'712.9
2017-Apr-14 03:29N 34°59' E 139°34'  

Dump ship's entire track history